createdAt,value
2022-08-03T00:02:19.342Z,5.38
2022-08-03T00:04:48.268Z,5.22
2022-08-03T00:07:15.926Z,5.60
2022-08-03T00:09:46.278Z,5.40
2022-08-03T00:12:16.514Z,5.72
2022-08-03T00:14:44.114Z,5.70
2022-08-03T00:17:11.615Z,5.63
2022-08-03T00:19:38.993Z,6.03
2022-08-03T00:22:06.363Z,5.57
2022-08-03T00:24:36.396Z,6.40
2022-08-03T00:27:03.793Z,5.57
2022-08-03T00:29:31.249Z,6.68
2022-08-03T00:32:00.220Z,6.93
2022-08-03T00:34:36.513Z,6.47
2022-08-03T00:37:16.440Z,6.35
2022-08-03T00:39:46.169Z,5.78
2022-08-03T00:42:16.799Z,5.97
2022-08-03T00:44:46.628Z,6.95
2022-08-03T00:47:13.990Z,6.20
2022-08-03T00:49:43.624Z,5.93
2022-08-03T00:52:12.044Z,6.10
2022-08-03T00:54:39.827Z,5.68
2022-08-03T00:57:08.204Z,6.28
2022-08-03T00:59:37.229Z,5.50
2022-08-03T01:02:04.661Z,5.82
2022-08-03T01:04:31.910Z,5.88
2022-08-03T01:07:13.344Z,5.57
2022-08-03T01:09:46.212Z,4.57
2022-08-03T01:12:22.886Z,4.22
2022-08-03T01:14:58.934Z,4.30
2022-08-03T01:17:28.311Z,4.63
2022-08-03T01:20:14.784Z,3.90
2022-08-03T01:23:11.034Z,3.83
2022-08-03T01:26:05.832Z,3.33
2022-08-03T01:28:56.855Z,4.25
2022-08-03T01:31:29.894Z,4.15
2022-08-03T01:34:03.383Z,3.88
2022-08-03T01:36:41.688Z,3.83
2022-08-03T01:39:12.040Z,3.30
2022-08-03T01:41:48.071Z,3.28
2022-08-03T01:44:29.016Z,3.53
2022-08-03T01:47:03.236Z,2.92
2022-08-03T01:49:32.606Z,3.55
2022-08-03T01:52:05.503Z,3.17
2022-08-03T01:54:41.796Z,3.08
2022-08-03T01:57:12.534Z,3.22
2022-08-03T01:59:42.432Z,3.20
2022-08-03T02:02:15.547Z,3.10
2022-08-03T02:05:02.311Z,2.90
2022-08-03T02:07:30.869Z,3.20
2022-08-03T02:09:58.884Z,2.60
2022-08-03T02:12:28.514Z,3.28
2022-08-03T02:14:57.611Z,3.20
2022-08-03T02:17:39.058Z,3.38
2022-08-03T02:20:13.379Z,4.05
2022-08-03T02:22:42.529Z,4.70
2022-08-03T02:25:12.554Z,4.47
2022-08-03T02:28:08.628Z,5.25
2022-08-03T02:30:39.334Z,5.07
2022-08-03T02:33:12.680Z,4.15
2022-08-03T02:35:41.478Z,4.65
2022-08-03T02:38:11.754Z,5.13
2022-08-03T02:40:41.351Z,5.40
2022-08-03T02:43:12.464Z,5.25
2022-08-03T02:45:45.626Z,5.13
2022-08-03T02:48:17.718Z,4.78
2022-08-03T02:50:47.244Z,4.90
2022-08-03T02:53:17.766Z,4.25
2022-08-03T02:55:50.278Z,5.05
2022-08-03T02:58:21.617Z,4.43
2022-08-03T03:00:54.288Z,4.38
2022-08-03T03:03:22.888Z,4.10
2022-08-03T03:05:57.566Z,4.18
2022-08-03T03:08:29.079Z,4.03
2022-08-03T03:11:01.170Z,3.75
2022-08-03T03:13:30.677Z,4.15
2022-08-03T03:16:04.208Z,4.35
2022-08-03T03:18:35.344Z,4.38
2022-08-03T03:21:04.817Z,4.65
2022-08-03T03:23:39.580Z,5.18
2022-08-03T03:26:08.042Z,3.90
2022-08-03T03:28:39.240Z,4.10
2022-08-03T03:31:07.778Z,3.55
2022-08-03T03:33:35.900Z,3.78
2022-08-03T03:36:04.970Z,3.35
2022-08-03T03:38:33.103Z,2.88
2022-08-03T03:41:00.773Z,2.15
2022-08-03T03:43:29.649Z,1.90
2022-08-03T03:45:59.206Z,2.30
2022-08-03T03:48:26.973Z,1.80
2022-08-03T03:50:54.712Z,2.00
2022-08-03T03:53:22.186Z,1.80
2022-08-03T03:56:01.969Z,2.08
2022-08-03T03:58:33.087Z,1.85
2022-08-03T04:01:03.649Z,2.10
2022-08-03T04:03:31.325Z,2.00
2022-08-03T04:06:17.588Z,2.10
2022-08-03T04:09:04.391Z,2.22
2022-08-03T04:12:01.365Z,2.97
2022-08-03T04:14:36.606Z,2.55
2022-08-03T04:17:09.716Z,2.28
2022-08-03T04:19:44.125Z,3.25
2022-08-03T04:22:17.031Z,3.30
2022-08-03T04:24:53.657Z,4.05
2022-08-03T04:27:29.022Z,3.92
2022-08-03T04:29:57.874Z,3.65
2022-08-03T04:32:28.923Z,4.05
2022-08-03T04:34:56.725Z,3.88
2022-08-03T04:37:48.134Z,3.88
2022-08-03T04:40:22.968Z,3.70
2022-08-03T04:42:51.323Z,4.53
2022-08-03T04:45:19.819Z,4.20
2022-08-03T04:47:47.639Z,3.83
2022-08-03T04:50:21.186Z,3.60
2022-08-03T04:53:06.075Z,4.13
2022-08-03T04:55:38.239Z,4.32
2022-08-03T04:58:06.583Z,3.78
2022-08-03T05:00:33.988Z,3.70
2022-08-03T05:03:01.373Z,3.88
2022-08-03T05:05:34.651Z,4.53
2022-08-03T05:08:17.161Z,3.50
2022-08-03T05:10:49.868Z,3.80
2022-08-03T05:13:17.258Z,3.72
2022-08-03T05:15:47.377Z,4.15
2022-08-03T05:18:14.636Z,3.65
2022-08-03T05:20:42.224Z,3.20
2022-08-03T05:23:09.503Z,3.22
2022-08-03T05:25:36.797Z,3.67
2022-08-03T05:28:05.145Z,3.42
2022-08-03T05:30:34.060Z,3.47
2022-08-03T05:33:05.024Z,3.85
2022-08-03T05:35:57.397Z,3.72
2022-08-03T05:38:28.572Z,3.80
2022-08-03T05:41:21.711Z,4.88
2022-08-03T05:43:50.018Z,4.28
2022-08-03T05:46:17.509Z,4.55
2022-08-03T05:48:44.758Z,4.22
2022-08-03T05:51:12.689Z,4.95
2022-08-03T05:53:44.232Z,5.15
2022-08-03T05:56:15.272Z,4.25
2022-08-03T05:58:45.223Z,4.10
2022-08-03T06:01:13.052Z,4.70
2022-08-03T06:03:40.700Z,4.68
2022-08-03T06:06:08.177Z,4.10
2022-08-03T06:08:38.716Z,5.00
2022-08-03T06:11:07.603Z,4.50
2022-08-03T06:13:42.187Z,4.55
2022-08-03T06:16:09.575Z,4.90
2022-08-03T06:18:37.994Z,4.72
2022-08-03T06:21:14.742Z,5.22
2022-08-03T06:23:54.121Z,4.35
2022-08-03T06:26:25.555Z,3.55
2022-08-03T06:28:54.444Z,3.20
2022-08-03T06:31:33.412Z,3.30
2022-08-03T06:34:35.115Z,2.92
2022-08-03T06:36:53.531Z,2.22
2022-08-03T06:39:24.558Z,2.20
2022-08-03T06:41:53.254Z,2.42
2022-08-03T06:44:20.674Z,2.00
2022-08-03T06:46:49.034Z,2.00
2022-08-03T06:49:16.486Z,1.95
2022-08-03T06:52:05.268Z,2.15
2022-08-03T06:54:33.270Z,2.40
2022-08-03T06:57:01.104Z,2.10
2022-08-03T07:00:10.769Z,2.63
2022-08-03T07:02:19.763Z,2.40
2022-08-03T07:04:49.420Z,2.13
2022-08-03T07:07:17.787Z,2.00
2022-08-03T07:09:55.684Z,2.00
2022-08-03T07:12:26.448Z,1.90
2022-08-03T07:14:59.589Z,2.05
2022-08-03T07:17:34.984Z,2.22
2022-08-03T07:20:06.366Z,2.17
2022-08-03T07:22:37.326Z,1.85
2022-08-03T07:25:06.302Z,1.90
2022-08-03T07:27:34.150Z,2.30
2022-08-03T07:30:02.249Z,1.52
2022-08-03T07:32:31.837Z,2.03
2022-08-03T07:35:01.779Z,1.90
2022-08-03T07:37:30.616Z,2.00
2022-08-03T07:39:59.281Z,1.95
2022-08-03T07:42:30.712Z,2.10
2022-08-03T07:44:59.612Z,1.92
2022-08-03T07:47:34.841Z,2.05
2022-08-03T07:50:04.515Z,1.75
2022-08-03T07:52:48.707Z,1.70
2022-08-03T07:55:21.747Z,2.28
2022-08-03T07:58:21.993Z,1.63
2022-08-03T08:00:53.474Z,2.10
2022-08-03T08:03:22.159Z,1.88
2022-08-03T08:05:51.472Z,1.70
2022-08-03T08:08:21.905Z,1.90
2022-08-03T08:10:58.341Z,1.42
2022-08-03T08:13:26.221Z,1.63
2022-08-03T08:15:53.727Z,1.40
2022-08-03T08:18:24.373Z,1.75
2022-08-03T08:20:52.552Z,1.42
2022-08-03T08:23:42.261Z,1.30
2022-08-03T08:26:10.728Z,1.17
2022-08-03T08:28:38.474Z,1.10
2022-08-03T08:31:05.972Z,0.90
2022-08-03T08:34:02.532Z,1.00
2022-08-03T08:36:22.402Z,0.85
2022-08-03T08:38:49.767Z,1.13
2022-08-03T08:41:17.594Z,1.15
2022-08-03T08:43:45.067Z,1.10
2022-08-03T08:46:23.112Z,8.15
2022-08-03T08:48:52.255Z,1.10
2022-08-03T08:51:21.887Z,1.05
2022-08-03T08:53:53.299Z,1.13
2022-08-03T08:56:25.714Z,1.00
2022-08-03T08:58:58.280Z,1.75
2022-08-03T09:01:26.910Z,1.17
2022-08-03T09:03:58.858Z,1.20
2022-08-03T09:06:26.254Z,1.35
2022-08-03T09:08:53.698Z,1.13
2022-08-03T09:11:54.498Z,1.05
2022-08-03T09:17:04.726Z,1.45
2022-08-03T09:19:42.044Z,1.10
2022-08-03T09:22:30.265Z,1.10
2022-08-03T09:25:22.889Z,0.80
2022-08-03T09:27:48.011Z,0.93
2022-08-03T09:30:32.512Z,1.20
2022-08-03T09:33:11.817Z,1.15
2022-08-03T09:35:57.768Z,1.27
2022-08-03T09:38:28.791Z,1.08
2022-08-03T09:40:59.963Z,1.10
2022-08-03T09:43:46.754Z,1.00
2022-08-03T09:48:41.632Z,1.30
2022-08-03T09:51:14.278Z,1.30
2022-08-03T09:54:00.461Z,1.08
2022-08-03T09:56:47.604Z,1.40
2022-08-03T09:59:30.836Z,1.13
2022-08-03T10:02:00.260Z,1.20
2022-08-03T10:04:29.118Z,1.00
2022-08-03T10:07:10.848Z,1.20
2022-08-03T10:09:38.656Z,1.10
2022-08-03T10:12:14.066Z,1.40
2022-08-03T10:14:48.259Z,1.20
2022-08-03T10:19:43.821Z,1.40
2022-08-03T10:22:15.838Z,1.80
2022-08-03T10:24:53.355Z,1.55
2022-08-03T10:27:23.608Z,1.20
2022-08-03T10:29:57.222Z,1.25
2022-08-03T10:33:02.382Z,1.13
2022-08-03T10:35:30.545Z,1.40
2022-08-03T10:38:08.456Z,1.60
2022-08-03T10:40:58.672Z,1.38
2022-08-03T10:43:37.740Z,1.00
2022-08-03T10:46:09.001Z,1.13
2022-08-03T10:48:37.271Z,1.15
2022-08-03T10:51:05.266Z,1.10
2022-08-03T10:53:38.362Z,1.30
2022-08-03T10:56:43.775Z,1.30
2022-08-03T10:59:14.726Z,1.55
2022-08-03T11:02:00.121Z,1.45
2022-08-03T11:04:30.498Z,1.95
2022-08-03T11:07:17.030Z,1.70
2022-08-03T11:09:50.745Z,1.60
2022-08-03T11:12:29.878Z,1.80
2022-08-03T11:15:01.731Z,1.60
2022-08-03T11:17:29.486Z,1.30
2022-08-03T11:19:58.567Z,1.60
2022-08-03T11:22:28.510Z,1.50
2022-08-03T11:25:00.051Z,1.50
2022-08-03T11:27:33.436Z,1.40
2022-08-03T11:30:09.673Z,1.60
2022-08-03T11:32:48.431Z,1.70
2022-08-03T11:35:31.112Z,1.33
2022-08-03T11:38:04.622Z,2.00
2022-08-03T11:43:04.948Z,2.03
2022-08-03T11:45:32.467Z,2.00
2022-08-03T11:48:15.239Z,1.95
2022-08-03T11:50:45.797Z,2.10
2022-08-03T11:53:19.175Z,1.40
2022-08-03T11:55:51.318Z,2.00
2022-08-03T11:59:15.398Z,1.95
2022-08-03T12:01:08.994Z,1.85
2022-08-03T12:03:36.602Z,2.10
2022-08-03T12:06:10.666Z,2.10
2022-08-03T12:08:38.472Z,2.05
2022-08-03T12:11:09.322Z,1.90
2022-08-03T12:14:44.706Z,3.47
2022-08-03T12:16:47.162Z,4.05
2022-08-03T12:19:14.601Z,5.25
2022-08-03T12:21:57.067Z,5.95
2022-08-03T12:24:25.018Z,5.93
2022-08-03T12:26:58.794Z,6.25
2022-08-03T12:29:30.053Z,5.50
2022-08-03T12:31:57.798Z,5.10
2022-08-03T12:34:47.405Z,5.03
2022-08-03T12:37:22.541Z,5.32
2022-08-03T12:40:05.004Z,5.70
2022-08-03T12:42:35.854Z,5.00
2022-08-03T12:45:23.996Z,5.30
2022-08-03T12:48:02.317Z,5.80
2022-08-03T12:50:35.087Z,4.97
2022-08-03T12:53:08.846Z,5.22
2022-08-03T12:55:56.597Z,5.15
2022-08-03T12:58:36.314Z,3.60
2022-08-03T13:01:09.688Z,3.92
2022-08-03T13:06:27.546Z,3.40
2022-08-03T13:09:08.865Z,3.22
2022-08-03T13:11:57.720Z,2.92
2022-08-03T13:14:23.997Z,3.10
2022-08-03T13:16:51.751Z,2.55
2022-08-03T13:19:19.130Z,2.15
2022-08-03T13:21:53.864Z,1.67
2022-08-03T13:24:33.237Z,2.70
2022-08-03T13:28:01.092Z,2.00
2022-08-03T13:29:51.057Z,1.73
2022-08-03T13:32:18.526Z,1.75
2022-08-03T13:34:46.227Z,1.77
2022-08-03T13:37:14.365Z,1.70
2022-08-03T13:39:57.297Z,1.70
2022-08-03T13:42:26.475Z,1.98
2022-08-03T13:44:53.938Z,1.90
2022-08-03T13:47:21.690Z,1.85
2022-08-03T13:49:59.803Z,1.92
2022-08-03T13:52:36.790Z,2.17
2022-08-03T13:55:07.845Z,2.72
2022-08-03T13:58:04.378Z,2.10
2022-08-03T14:00:28.620Z,2.80
2022-08-03T14:03:12.629Z,3.30
2022-08-03T14:05:42.299Z,2.70
2022-08-03T14:08:10.044Z,2.25
2022-08-03T14:10:41.707Z,2.10
2022-08-03T14:13:10.941Z,2.50
2022-08-03T14:15:38.739Z,2.42
2022-08-03T14:18:12.875Z,2.90
2022-08-03T14:20:49.057Z,2.67
2022-08-03T14:23:19.108Z,2.00
2022-08-03T14:25:51.672Z,2.35
2022-08-03T14:28:23.227Z,2.25
2022-08-03T14:30:52.376Z,2.08
2022-08-03T14:33:20.437Z,2.35
2022-08-03T14:35:48.765Z,1.67
2022-08-03T14:38:17.124Z,1.75
2022-08-03T14:40:45.043Z,1.50
2022-08-03T14:43:12.955Z,1.85
2022-08-03T14:45:45.650Z,1.70
2022-08-03T14:51:02.116Z,2.00
2022-08-03T14:53:30.381Z,2.08
2022-08-03T14:55:58.830Z,2.13
2022-08-03T14:58:26.964Z,2.25
2022-08-03T15:00:55.718Z,2.17
2022-08-03T15:03:25.134Z,2.10
2022-08-03T15:05:57.411Z,2.25
2022-08-03T15:08:26.041Z,2.20
2022-08-03T15:10:54.857Z,2.40
2022-08-03T15:13:22.577Z,2.60
2022-08-03T15:15:50.283Z,2.03
2022-08-03T15:18:18.057Z,1.83
2022-08-03T15:20:47.002Z,2.17
2022-08-03T15:23:18.362Z,2.40
2022-08-03T15:26:31.583Z,2.05
2022-08-03T15:28:34.102Z,1.85
2022-08-03T15:31:05.748Z,2.03
2022-08-03T15:33:33.338Z,2.10
2022-08-03T15:36:03.007Z,2.08
2022-08-03T15:38:30.460Z,1.83
2022-08-03T15:40:59.319Z,1.60
2022-08-03T15:43:26.763Z,2.40
2022-08-03T15:46:26.603Z,2.13
2022-08-03T15:48:41.994Z,2.50
2022-08-03T15:51:09.757Z,2.70
2022-08-03T15:53:38.109Z,2.33
2022-08-03T15:56:11.421Z,2.00
2022-08-03T15:59:09.201Z,2.10
2022-08-03T16:01:33.125Z,2.05
2022-08-03T16:04:00.566Z,2.50
2022-08-03T16:06:34.634Z,2.30
2022-08-03T16:09:23.949Z,2.70
2022-08-03T16:11:54.805Z,2.60
2022-08-03T16:14:34.243Z,2.30
2022-08-03T16:17:04.558Z,2.60
2022-08-03T16:19:31.939Z,2.35
2022-08-03T16:21:59.883Z,2.63
2022-08-03T16:24:28.472Z,2.45
2022-08-03T16:26:56.698Z,3.05
2022-08-03T16:29:24.314Z,2.95
2022-08-03T16:31:52.700Z,2.80
2022-08-03T16:34:21.498Z,2.90
2022-08-03T16:36:48.967Z,3.50
2022-08-03T16:39:16.505Z,2.83
2022-08-03T16:41:53.872Z,2.80
2022-08-03T16:44:31.653Z,3.35
2022-08-03T16:47:00.734Z,3.15
2022-08-03T16:49:54.298Z,3.20
2022-08-03T16:52:17.857Z,3.10
2022-08-03T16:54:53.078Z,3.58
2022-08-03T16:57:56.116Z,3.33
2022-08-03T17:00:34.134Z,3.33
2022-08-03T17:03:04.505Z,3.13
2022-08-03T17:05:43.865Z,3.78
2022-08-03T17:08:26.359Z,4.17
2022-08-03T17:10:55.867Z,4.38
2022-08-03T17:13:38.833Z,3.83
2022-08-03T17:16:15.420Z,3.63
2022-08-03T17:18:49.650Z,3.80
2022-08-03T17:21:20.409Z,4.20
2022-08-03T17:24:18.665Z,3.88
2022-08-03T17:26:51.177Z,3.50
2022-08-03T17:29:23.210Z,3.35
2022-08-03T17:31:53.189Z,3.88
2022-08-03T17:34:26.367Z,3.47
2022-08-03T17:37:04.188Z,4.18
2022-08-03T17:39:58.719Z,4.97
2022-08-03T17:42:30.520Z,4.53
2022-08-03T17:45:03.972Z,4.60
2022-08-03T17:47:42.073Z,4.18
2022-08-03T17:50:25.003Z,4.10
2022-08-03T17:53:23.987Z,4.18
2022-08-03T17:56:40.409Z,4.70
2022-08-03T17:59:52.401Z,5.33
2022-08-03T18:02:52.401Z,6.40
2022-08-03T18:05:22.190Z,4.90
2022-08-03T18:07:59.329Z,4.25
2022-08-03T18:10:34.553Z,4.78
2022-08-03T18:13:15.989Z,4.10
2022-08-03T18:15:53.495Z,4.80
2022-08-03T18:18:32.689Z,4.53
2022-08-03T18:21:09.319Z,6.07
2022-08-03T18:23:45.248Z,4.65
2022-08-03T18:26:18.338Z,4.15
2022-08-03T18:28:45.845Z,3.97
2022-08-03T18:31:59.592Z,4.32
2022-08-03T18:34:17.379Z,4.95
2022-08-03T18:36:52.659Z,5.15
2022-08-03T18:39:23.552Z,5.00
2022-08-03T18:41:52.402Z,5.15
2022-08-03T18:44:53.510Z,5.95
2022-08-03T18:47:50.547Z,6.05
2022-08-03T18:50:53.811Z,5.28
2022-08-03T18:54:03.027Z,5.53
2022-08-03T18:56:47.801Z,6.43
2022-08-03T18:59:30.267Z,6.18
2022-08-03T19:02:05.888Z,6.82
2022-08-03T19:04:45.595Z,6.63
2022-08-03T19:07:23.439Z,6.43
2022-08-03T19:09:58.764Z,6.32
2022-08-03T19:12:30.916Z,5.70
2022-08-03T19:15:12.596Z,6.28
2022-08-03T19:17:50.154Z,5.60
2022-08-03T19:20:31.289Z,5.85
2022-08-03T19:23:00.000Z,6.10
2022-08-03T19:25:34.732Z,5.65
2022-08-03T19:28:06.120Z,5.63
2022-08-03T19:30:38.583Z,5.72
2022-08-03T19:33:09.874Z,7.32
2022-08-03T19:35:54.920Z,10.32
2022-08-03T19:38:29.024Z,6.47
2022-08-03T19:41:03.200Z,7.22
2022-08-03T19:43:53.139Z,5.97
2022-08-03T19:46:31.165Z,5.90
2022-08-03T19:49:14.817Z,6.90
2022-08-03T19:52:02.231Z,6.45
2022-08-03T19:54:53.305Z,5.82
2022-08-03T19:57:24.491Z,5.32
2022-08-03T19:59:53.887Z,5.88
2022-08-03T20:02:25.725Z,5.70
2022-08-03T20:04:57.786Z,5.85
2022-08-03T20:07:29.481Z,5.90
2022-08-03T20:10:01.587Z,5.22
2022-08-03T20:12:33.231Z,8.00
2022-08-03T20:15:06.851Z,6.57
2022-08-03T20:17:56.106Z,15.43
2022-08-03T20:20:24.469Z,9.45
2022-08-03T20:22:57.727Z,5.07
2022-08-03T20:25:38.280Z,5.22
2022-08-03T20:28:15.242Z,5.78
2022-08-03T20:30:47.383Z,5.60
2022-08-03T20:33:18.860Z,5.30
2022-08-03T20:35:49.396Z,6.70
2022-08-03T20:38:19.018Z,5.00
2022-08-03T20:40:47.679Z,5.15
2022-08-03T20:43:16.609Z,4.40
2022-08-03T20:46:01.244Z,4.30
2022-08-03T20:48:36.433Z,5.00
2022-08-03T20:51:19.610Z,5.05
2022-08-03T20:53:59.657Z,4.45
2022-08-03T20:56:32.517Z,4.55
2022-08-03T20:59:04.005Z,4.30
2022-08-03T21:01:36.205Z,5.55
2022-08-03T21:04:07.176Z,3.33
2022-08-03T21:06:53.145Z,3.58
2022-08-03T21:09:33.562Z,3.70
2022-08-03T21:12:13.176Z,3.92
2022-08-03T21:17:38.414Z,4.30
2022-08-03T21:20:10.894Z,5.63
2022-08-03T21:22:41.749Z,5.57
2022-08-03T21:25:10.702Z,5.82
2022-08-03T21:27:42.013Z,4.88
2022-08-03T21:30:11.432Z,5.35
2022-08-03T21:32:40.733Z,5.53
2022-08-03T21:35:12.966Z,5.65
2022-08-03T21:37:42.589Z,4.97
2022-08-03T21:40:12.463Z,4.00
2022-08-03T21:42:44.469Z,4.97
2022-08-03T21:45:17.345Z,3.97
2022-08-03T21:47:47.022Z,4.13
2022-08-03T21:50:14.736Z,2.90
2022-08-03T21:52:47.369Z,3.28
2022-08-03T21:55:20.300Z,3.55
2022-08-03T21:57:53.176Z,3.20
2022-08-03T22:00:23.419Z,2.95
2022-08-03T22:02:56.035Z,3.47
2022-08-03T22:05:42.512Z,3.85
2022-08-03T22:08:14.253Z,3.40
2022-08-03T22:10:44.852Z,2.75
2022-08-03T22:13:14.418Z,2.80
2022-08-03T22:15:42.061Z,2.95
2022-08-03T22:18:10.133Z,2.60
2022-08-03T22:20:37.821Z,2.75
2022-08-03T22:23:06.967Z,2.45
2022-08-03T22:25:36.801Z,2.25
2022-08-03T22:28:12.877Z,2.30
2022-08-03T22:30:41.852Z,2.50
2022-08-03T22:33:12.983Z,2.47
2022-08-03T22:35:44.199Z,2.50
2022-08-03T22:38:17.274Z,2.65
2022-08-03T22:40:45.332Z,2.70
2022-08-03T22:43:12.623Z,2.60
2022-08-03T22:46:09.397Z,2.35
2022-08-03T22:48:29.370Z,2.13
2022-08-03T22:51:00.913Z,2.47
2022-08-03T22:53:28.898Z,2.58
2022-08-03T22:55:56.440Z,2.42
2022-08-03T22:58:23.978Z,2.60
2022-08-03T23:01:07.451Z,3.05
2022-08-03T23:03:58.653Z,2.40
2022-08-03T23:06:27.421Z,2.60
2022-08-03T23:08:55.780Z,2.17
2022-08-03T23:11:25.009Z,2.33
2022-08-03T23:13:54.714Z,2.60
2022-08-03T23:16:28.875Z,2.35
2022-08-03T23:19:16.583Z,2.30
2022-08-03T23:21:51.271Z,2.47
2022-08-03T23:24:30.239Z,2.70
2022-08-03T23:26:59.212Z,3.05
2022-08-03T23:29:29.543Z,2.83
2022-08-03T23:31:57.837Z,3.00
2022-08-03T23:34:44.626Z,3.08
2022-08-03T23:37:15.022Z,2.97
2022-08-03T23:39:47.349Z,2.70
2022-08-03T23:42:18.309Z,2.90
2022-08-03T23:44:46.598Z,3.20
2022-08-03T23:47:14.494Z,3.28
2022-08-03T23:49:41.987Z,2.92
2022-08-03T23:52:53.204Z,2.90
2022-08-03T23:55:21.511Z,2.85
2022-08-03T23:58:17.159Z,2.70
